Time;durP1;ratioP1;P1;durP2;ratioP2;P2;SDS_P1;SDS_P2;PMS_P1;PMS_P2;Temp;Humidity;BMP_temperature;BMP_pressure;BME280_temperature;BME280_humidity;BME280_pressure;Samples;Min_cycle;Max_cycle;Signal;HPM_P1;HPM_P2
2022/09/24 00:01:26;;;;;;;17.80;15.48;;;;;;;8.82;63.00;95263.03;5115714;28;20210;-70
2022/09/24 00:03:55;;;;;;;13.25;11.70;;;;;;;8.81;62.98;95255.91;5115580;28;20207;-70
2022/09/24 00:06:22;;;;;;;10.48;9.50;;;;;;;8.83;62.97;95261.09;5115547;28;20253;-70
2022/09/24 00:08:54;;;;;;;14.45;12.43;;;;;;;8.82;62.98;95254.78;5115223;28;20192;-70
2022/09/24 00:11:23;;;;;;;13.48;12.20;;;;;;;8.79;62.69;95258.22;5115908;28;20278;-70
2022/09/24 00:13:51;;;;;;;12.27;11.05;;;;;;;8.74;62.68;95249.34;5115593;28;20257;-70
2022/09/24 00:16:21;;;;;;;10.35;9.25;;;;;;;8.70;62.68;95248.41;5115947;28;20216;-71
2022/09/24 00:18:48;;;;;;;9.80;8.80;;;;;;;8.60;62.27;95250.41;5115404;28;20191;-70
2022/09/24 00:21:17;;;;;;;9.45;8.52;;;;;;;8.51;62.29;95248.91;5115232;28;20199;-70
2022/09/24 00:23:45;;;;;;;10.27;9.05;;;;;;;8.50;63.05;95242.59;5115101;28;20630;-70
2022/09/24 00:28:59;;;;;;;10.32;9.27;;;;;;;8.44;62.65;95247.47;5114441;28;20623;-71
2022/09/24 00:31:26;;;;;;;9.32;8.43;;;;;;;8.44;62.84;95243.94;5115263;28;20188;-70
2022/09/24 00:33:53;;;;;;;8.35;7.55;;;;;;;8.43;62.86;95242.34;5114807;28;20207;-70
2022/09/24 00:36:21;;;;;;;9.27;7.78;;;;;;;8.38;62.79;95242.50;5115611;28;20608;-70
2022/09/24 00:38:49;;;;;;;8.35;7.50;;;;;;;8.33;62.85;95246.25;5115020;28;20199;-70
2022/09/24 00:41:18;;;;;;;8.88;7.95;;;;;;;8.29;62.79;95248.06;5115166;28;20195;-70
2022/09/24 00:43:46;;;;;;;9.88;8.80;;;;;;;8.24;62.74;95245.47;5115219;28;20188;-69
2022/09/24 00:46:19;;;;;;;9.00;8.10;;;;;;;8.18;62.43;95244.88;5115987;28;20253;-69
2022/09/24 00:48:46;;;;;;;11.30;8.23;;;;;;;8.13;62.76;95245.09;5115342;28;20297;-70
2022/09/24 00:51:16;;;;;;;9.88;8.68;;;;;;;8.14;62.96;95237.66;5115671;28;20187;-70
2022/09/24 00:53:44;;;;;;;8.90;8.00;;;;;;;8.13;63.11;95236.03;5115497;28;20206;-70
2022/09/24 00:56:14;;;;;;;9.20;8.25;;;;;;;8.09;63.32;95240.56;5114519;28;20207;-70
2022/09/24 00:58:43;;;;;;;8.50;7.65;;;;;;;8.06;63.26;95238.50;5115652;28;20205;-69
2022/09/24 01:01:09;;;;;;;8.55;7.75;;;;;;;8.05;63.44;95242.38;5115557;28;20187;-69
2022/09/24 01:03:41;;;;;;;9.85;8.88;;;;;;;8.03;63.65;95234.50;5114748;28;20207;-69
2022/09/24 01:06:08;;;;;;;8.85;7.95;;;;;;;8.03;63.65;95231.75;5114713;28;20192;-70
2022/09/24 01:08:35;;;;;;;9.38;8.50;;;;;;;8.04;63.55;95235.28;5114674;28;20219;-70
2022/09/24 01:11:17;;;;;;;9.57;8.57;;;;;;;8.06;63.74;95230.25;5115449;28;20210;-69
2022/09/24 01:13:55;;;;;;;8.80;7.90;;;;;;;8.05;63.67;95234.94;5115139;28;20631;-70
2022/09/24 01:16:28;;;;;;;9.10;8.20;;;;;;;7.99;63.48;95233.53;5115634;28;20176;-70
2022/09/24 01:19:04;;;;;;;9.40;8.40;;;;;;;7.96;63.83;95240.50;5115270;28;20203;-70
2022/09/24 01:21:37;;;;;;;9.07;8.13;;;;;;;7.92;63.57;95234.06;5114915;28;20191;-70
2022/09/24 01:24:29;;;;;;;9.35;8.20;;;;;;;7.90;64.16;95227.28;5114735;28;20219;-70
2022/09/24 01:27:03;;;;;;;9.98;8.32;;;;;;;7.89;64.03;95231.19;5114897;28;20200;-70
2022/09/24 01:29:40;;;;;;;9.63;8.63;;;;;;;7.89;63.92;95228.44;5115095;28;20648;-70
2022/09/24 01:32:10;;;;;;;11.57;8.85;;;;;;;7.87;64.19;95223.25;5114118;28;20211;-70
2022/09/24 01:34:40;;;;;;;10.93;8.93;;;;;;;7.86;63.99;95227.16;5115378;28;20180;-70
2022/09/24 01:37:07;;;;;;;9.93;8.23;;;;;;;7.86;63.98;95227.16;5114914;28;20180;-70
2022/09/24 01:39:36;;;;;;;9.25;8.35;;;;;;;7.87;64.06;95227.94;5114552;28;20212;-70
2022/09/24 01:42:03;;;;;;;8.52;7.72;;;;;;;7.87;64.24;95222.44;5114447;28;20199;-70
2022/09/24 01:44:30;;;;;;;9.27;8.38;;;;;;;7.88;64.04;95237.78;5115155;28;20188;-70
2022/09/24 01:46:59;;;;;;;9.43;8.45;;;;;;;7.84;63.99;95234.94;5117868;28;20206;-70
2022/09/24 01:49:27;;;;;;;9.55;8.60;;;;;;;7.79;63.47;95234.28;5118775;28;20534;-70
2022/09/24 01:51:57;;;;;;;8.63;7.78;;;;;;;7.76;64.06;95238.50;5117828;28;20207;-70
2022/09/24 01:54:27;;;;;;;8.95;8.05;;;;;;;7.73;64.06;95239.16;5119008;28;20199;-70
2022/09/24 01:56:59;;;;;;;8.38;7.60;;;;;;;7.69;64.01;95238.22;5117894;28;20208;-70
2022/09/24 01:59:30;;;;;;;8.38;7.60;;;;;;;7.66;64.10;95239.69;5117931;28;20203;-70
2022/09/24 02:02:03;;;;;;;9.05;8.23;;;;;;;7.64;64.19;95241.94;5117509;28;20203;-70
2022/09/24 02:04:30;;;;;;;8.10;7.40;;;;;;;7.65;64.10;95240.81;5118750;28;20195;-70
2022/09/24 02:07:01;;;;;;;8.15;7.35;;;;;;;7.64;64.06;95243.91;5117439;28;20204;-70
2022/09/24 02:09:33;;;;;;;8.48;7.68;;;;;;;7.65;64.10;95246.28;5118374;28;20200;-69
2022/09/24 02:12:04;;;;;;;8.10;7.40;;;;;;;7.64;64.09;95252.13;5118309;28;20184;-69
2022/09/24 02:14:32;;;;;;;8.05;7.28;;;;;;;7.61;64.18;95253.59;5118597;28;20192;-70
2022/09/24 02:17:02;;;;;;;9.70;7.30;;;;;;;7.61;64.48;95259.06;5118402;28;20195;-70
2022/09/24 02:19:29;;;;;;;8.40;7.68;;;;;;;7.61;64.39;95259.06;5117852;28;20184;-70
2022/09/24 02:21:57;;;;;;;8.73;7.93;;;;;;;7.64;64.31;95260.38;5117733;28;20287;-70
2022/09/24 02:24:28;;;;;;;8.88;7.47;;;;;;;7.63;64.41;95258.75;5118373;28;20195;-69
2022/09/24 02:26:55;;;;;;;8.05;7.32;;;;;;;7.62;64.17;95263.44;5118101;28;20176;-69
2022/09/24 02:29:22;;;;;;;8.05;7.13;;;;;;;7.64;64.83;95263.13;5117215;28;20220;-70
2022/09/24 02:31:50;;;;;;;7.35;6.65;;;;;;;7.63;64.22;95265.06;5117806;28;20184;-70
2022/09/24 02:34:20;;;;;;;8.20;7.40;;;;;;;7.57;64.26;95271.84;5118155;28;20180;-70
2022/09/24 02:36:47;;;;;;;8.15;7.40;;;;;;;7.54;64.57;95278.00;5117726;28;20614;-69
2022/09/24 02:39:16;;;;;;;8.23;7.03;;;;;;;7.50;64.29;95279.00;5118043;28;20240;-69
2022/09/24 02:41:46;;;;;;;7.63;6.90;;;;;;;7.43;64.50;95279.50;5117523;28;20194;-70
2022/09/24 02:44:13;;;;;;;7.88;7.18;;;;;;;7.39;64.46;95284.81;5117700;28;20623;-70
2022/09/24 02:46:40;;;;;;;8.10;7.30;;;;;;;7.37;64.34;95276.13;5117977;28;20187;-70
2022/09/24 02:49:07;;;;;;;8.65;7.60;;;;;;;7.38;64.62;95285.97;5117771;28;20200;-69
2022/09/24 02:51:36;;;;;;;7.80;7.10;;;;;;;7.36;64.37;95288.22;5117163;28;20215;-70
2022/09/24 02:54:03;;;;;;;7.63;6.82;;;;;;;7.35;64.62;95289.34;5116778;28;20218;-70
2022/09/24 02:56:30;;;;;;;7.70;6.60;;;;;;;7.30;64.40;95294.19;5116330;28;20195;-70
2022/09/24 02:58:57;;;;;;;6.82;6.22;;;;;;;7.26;64.19;95293.25;5117451;28;20214;-69
2022/09/24 03:01:23;;;;;;;7.40;6.70;;;;;;;7.22;64.26;95293.88;5117118;28;20199;-70
2022/09/24 03:03:50;;;;;;;7.40;6.80;;;;;;;7.20;64.48;95296.19;5117080;28;20528;-70
2022/09/24 03:06:17;;;;;;;7.63;6.68;;;;;;;7.16;64.39;95297.16;5117050;28;20192;-70
2022/09/24 03:08:45;;;;;;;7.50;6.70;;;;;;;7.11;64.64;95291.81;5116226;28;20223;-69
2022/09/24 03:11:13;;;;;;;8.27;7.10;;;;;;;7.06;64.18;95292.81;5117351;28;20219;-70
2022/09/24 03:13:40;;;;;;;8.17;7.37;;;;;;;7.05;64.61;95293.94;5117563;28;20187;-69
2022/09/24 03:16:07;;;;;;;7.63;6.93;;;;;;;7.04;64.28;95291.50;5117317;28;20191;-70
2022/09/24 03:18:35;;;;;;;7.40;6.70;;;;;;;7.03;64.51;95287.97;5116481;28;20195;-70
2022/09/24 03:21:03;;;;;;;8.10;7.03;;;;;;;7.01;64.32;95293.00;5116322;28;20202;-70
2022/09/24 03:23:30;;;;;;;8.02;7.25;;;;;;;7.02;64.48;95291.03;5117208;28;20192;-70
2022/09/24 03:25:58;;;;;;;8.20;7.45;;;;;;;7.00;64.29;95294.09;5116195;28;20626;-71
2022/09/24 03:28:25;;;;;;;7.55;6.75;;;;;;;6.98;64.89;95304.59;5116608;28;20655;-70
2022/09/24 03:31:00;;;;;;;7.70;6.88;;;;;;;7.00;65.04;95303.13;5115489;28;20239;-70
2022/09/24 03:33:28;;;;;;;7.30;6.63;;;;;;;7.00;64.78;95297.63;5116778;28;20512;-70
2022/09/24 03:35:59;;;;;;;8.40;7.65;;;;;;;7.00;64.89;95303.13;5115946;28;20615;-70
2022/09/24 03:38:26;;;;;;;8.48;7.47;;;;;;;7.00;64.69;95300.38;5116880;28;20192;-70
2022/09/24 03:40:53;;;;;;;8.20;7.40;;;;;;;7.00;65.21;95316.84;5116795;28;20541;-70
2022/09/24 03:43:22;;;;;;;7.45;6.72;;;;;;;7.03;65.21;95311.84;5116446;28;20521;-70
2022/09/24 03:45:49;;;;;;;8.47;7.07;;;;;;;7.02;64.82;95305.56;5116029;28;20195;-70
2022/09/24 03:48:16;;;;;;;7.97;7.17;;;;;;;6.97;64.94;95305.72;5116776;28;20241;-70
2022/09/24 03:50:43;;;;;;;7.57;6.88;;;;;;;6.93;64.65;95311.03;5116489;28;20184;-70
2022/09/24 03:53:10;;;;;;;8.40;7.03;;;;;;;6.90;64.51;95311.72;5116533;28;20180;-70
2022/09/24 03:55:42;;;;;;;8.10;7.40;;;;;;;6.89;64.50;95317.50;5115498;28;20195;-70
2022/09/24 03:58:09;;;;;;;9.82;8.32;;;;;;;6.86;64.47;95310.75;5115898;28;20184;-70
2022/09/24 04:00:37;;;;;;;8.67;7.80;;;;;;;6.83;64.49;95321.56;5116433;28;20197;-70
2022/09/24 04:03:04;;;;;;;12.18;8.48;;;;;;;6.79;64.42;95315.06;5115539;28;20277;-70
2022/09/24 04:05:31;;;;;;;9.50;7.45;;;;;;;6.73;64.11;95319.94;5115285;28;20201;-70
2022/09/24 04:07:58;;;;;;;11.18;7.65;;;;;;;6.70;64.50;95323.31;5116203;28;20203;-70
2022/09/24 04:10:25;;;;;;;8.85;7.57;;;;;;;6.65;64.87;95318.81;5115652;28;20199;-70
2022/09/24 04:12:52;;;;;;;8.65;6.75;;;;;;;6.62;65.01;95318.63;5115441;28;20207;-70
2022/09/24 04:15:20;;;;;;;11.80;7.72;;;;;;;6.61;64.74;95319.75;5115131;28;20626;-70
2022/09/24 04:17:51;;;;;;;8.80;7.28;;;;;;;6.62;65.33;95318.63;5115322;28;20223;-70
2022/09/24 04:20:21;;;;;;;9.48;7.30;;;;;;;6.59;65.08;95319.28;5115447;28;20256;-70
2022/09/24 04:22:49;;;;;;;8.40;6.73;;;;;;;6.61;65.07;95319.75;5116068;28;20190;-70
2022/09/24 04:25:16;;;;;;;8.20;7.20;;;;;;;6.59;65.17;95328.28;5115715;28;20507;-70
2022/09/24 04:27:42;;;;;;;8.73;6.93;;;;;;;6.54;65.26;95331.22;5115287;28;20196;-70
2022/09/24 04:30:11;;;;;;;11.40;7.40;;;;;;;6.53;65.30;95335.06;5114947;28;20235;-70
2022/09/24 04:32:38;;;;;;;9.13;7.20;;;;;;;6.54;65.20;95333.16;5116083;28;20179;-70
2022/09/24 04:35:08;;;;;;;9.90;7.07;;;;;;;6.55;65.47;95342.97;5114977;28;20537;-70
2022/09/24 04:37:34;;;;;;;8.38;7.00;;;;;;;6.54;65.40;95336.69;5116281;28;20600;-71
2022/09/24 04:40:02;;;;;;;7.63;6.93;;;;;;;6.54;65.05;95342.16;5116029;28;20183;-70
2022/09/24 04:42:29;;;;;;;9.73;7.07;;;;;;;6.55;65.48;95338.28;5115017;28;20214;-69
2022/09/24 04:44:55;;;;;;;9.63;7.40;;;;;;;6.54;65.21;95339.44;5114579;28;20630;-69
2022/09/24 04:47:24;;;;;;;8.43;7.17;;;;;;;6.58;65.27;95340.41;5115646;28;20180;-70
2022/09/24 04:49:52;;;;;;;8.77;7.40;;;;;;;6.66;65.36;95342.34;5114092;28;20427;-69
2022/09/24 04:52:28;;;;;;;8.80;7.57;;;;;;;6.68;64.88;95340.09;5114706;28;20424;-69
2022/09/24 04:54:57;;;;;;;7.93;6.43;;;;;;;6.73;65.37;95342.66;5114580;28;20995;-69
2022/09/24 04:57:24;;;;;;;8.30;7.50;;;;;;;6.77;65.44;95333.78;5114911;28;20571;-69
2022/09/24 04:59:51;;;;;;;7.38;6.60;;;;;;;6.79;65.42;95337.84;5114916;28;20191;-69
2022/09/24 05:02:19;;;;;;;11.18;7.57;;;;;;;6.78;65.18;95340.88;5115377;28;20176;-69
2022/09/24 05:04:46;;;;;;;9.82;6.85;;;;;;;6.81;65.06;95342.97;5115273;28;20190;-69
2022/09/24 05:07:13;;;;;;;14.20;7.13;;;;;;;6.82;65.01;95341.84;5115712;28;20195;-69
2022/09/24 05:09:41;;;;;;;10.32;7.60;;;;;;;6.84;65.17;95337.66;5115636;28;20230;-69
2022/09/24 05:12:08;;;;;;;8.18;7.38;;;;;;;6.88;65.53;95343.31;5114776;28;20213;-69
2022/09/24 05:14:35;;;;;;;9.85;7.55;;;;;;;6.93;65.65;95343.13;5115373;28;20268;-69
2022/09/24 05:17:02;;;;;;;8.37;7.53;;;;;;;6.97;65.55;95339.44;5115091;28;20554;-69
2022/09/24 05:19:28;;;;;;;14.57;13.20;;;;;;;7.03;65.40;95342.00;5115206;28;20192;-69
2022/09/24 05:21:55;;;;;;;10.55;7.90;;;;;;;7.07;65.62;95346.53;5118671;28;20206;-69
2022/09/24 05:24:22;;;;;;;10.53;9.30;;;;;;;7.09;65.64;95340.72;5118734;28;20268;-68
2022/09/24 05:27:09;;;;;;;9.45;7.20;;;;;;;7.14;65.57;95344.09;5118652;28;20203;-69
2022/09/24 05:29:36;;;;;;;9.20;8.27;;;;;;;7.18;66.06;95347.00;5104239;28;20239;-69
2022/09/24 05:32:05;;;;;;;8.73;7.70;;;;;;;7.20;66.12;95350.25;5119358;28;20191;-69
2022/09/24 05:34:32;;;;;;;10.25;7.80;;;;;;;7.22;66.28;95350.69;5118483;28;20245;-70
2022/09/24 05:36:59;;;;;;;10.50;8.63;;;;;;;7.27;66.57;95356.03;5119212;28;20188;-69
2022/09/24 05:39:28;;;;;;;9.63;8.63;;;;;;;7.33;66.68;95353.91;5118969;28;20200;-69
2022/09/24 05:41:57;;;;;;;12.82;9.60;;;;;;;7.39;66.74;95355.38;5118385;28;20196;-69
2022/09/24 05:44:24;;;;;;;11.07;9.97;;;;;;;7.40;67.20;95360.53;5118109;28;20199;-69
2022/09/24 05:46:52;;;;;;;11.10;9.93;;;;;;;7.46;67.28;95361.16;5118110;28;20200;-69
2022/09/24 05:49:19;;;;;;;12.02;9.20;;;;;;;7.50;66.84;95366.81;5118900;28;20273;-69
2022/09/24 05:51:47;;;;;;;13.45;10.25;;;;;;;7.54;66.75;95365.03;5118680;28;20614;-69
2022/09/24 05:54:15;;;;;;;9.55;8.65;;;;;;;7.57;66.94;95370.66;5118220;28;20195;-69
2022/09/24 05:56:41;;;;;;;9.63;8.73;;;;;;;7.60;67.39;95370.03;5117773;28;20203;-69
2022/09/24 05:59:10;;;;;;;11.30;10.18;;;;;;;7.65;67.05;95364.34;5118191;28;20425;-69
2022/09/24 06:01:36;;;;;;;15.77;13.70;;;;;;;7.68;67.11;95363.69;5118511;28;20616;-69
2022/09/24 06:04:03;;;;;;;18.20;15.73;;;;;;;7.72;67.44;95366.59;5118428;28;20203;-69
2022/09/24 06:06:30;;;;;;;17.33;15.65;;;;;;;7.75;67.29;95374.19;5118359;28;20200;-69
2022/09/24 06:08:57;;;;;;;14.45;12.90;;;;;;;7.79;67.61;95371.59;5117647;28;20669;-69
2022/09/24 06:11:26;;;;;;;9.23;8.43;;;;;;;7.83;67.25;95375.28;5118724;28;20187;-69
2022/09/24 06:13:53;;;;;;;10.17;9.10;;;;;;;7.83;67.02;95367.84;5117966;28;20199;-69
2022/09/24 06:16:22;;;;;;;9.70;8.80;;;;;;;7.87;67.22;95373.50;5117221;28;20630;-69
2022/09/24 06:18:48;;;;;;;8.90;8.10;;;;;;;7.91;67.03;95368.94;5117507;28;20513;-69
2022/09/24 06:21:16;;;;;;;8.17;7.47;;;;;;;7.92;66.51;95373.34;5117529;28;20196;-69
2022/09/24 06:23:44;;;;;;;9.07;8.18;;;;;;;7.95;66.55;95378.13;5118342;28;20191;-69
2022/09/24 06:26:12;;;;;;;9.38;8.27;;;;;;;7.99;66.67;95376.38;5118438;28;20290;-69
2022/09/24 06:28:40;;;;;;;10.75;9.18;;;;;;;8.05;66.63;95380.53;5117349;28;20223;-69
2022/09/24 06:31:08;;;;;;;9.68;8.75;;;;;;;8.08;66.49;95384.56;5117380;28;20232;-69
2022/09/24 06:33:36;;;;;;;7.78;6.97;;;;;;;8.11;66.73;95379.22;5116359;28;20650;-69
2022/09/24 06:36:04;;;;;;;7.70;7.00;;;;;;;8.16;66.73;95379.03;5117362;28;20192;-69
2022/09/24 06:38:31;;;;;;;8.85;7.95;;;;;;;8.23;66.50;95385.97;5117287;28;20199;-69
2022/09/24 06:40:59;;;;;;;12.10;10.98;;;;;;;8.28;66.08;95378.34;5117679;28;20603;-69
2022/09/24 06:43:26;;;;;;;12.23;10.87;;;;;;;8.34;65.86;95378.97;5118197;28;20188;-69
2022/09/24 06:45:55;;;;;;;10.52;9.52;;;;;;;8.40;65.94;95380.44;5116919;28;20204;-69
2022/09/24 06:48:22;;;;;;;9.35;8.32;;;;;;;8.42;65.76;95373.47;5117207;28;20196;-69
2022/09/24 06:50:50;;;;;;;8.75;7.85;;;;;;;8.48;65.30;95376.81;5117051;28;20243;-69
2022/09/24 06:53:17;;;;;;;10.43;8.33;;;;;;;8.52;65.35;95376.97;5117795;28;20537;-69
2022/09/24 06:55:44;;;;;;;8.53;7.70;;;;;;;8.55;65.06;95379.03;5116858;28;20203;-69
2022/09/24 06:58:12;;;;;;;9.35;8.30;;;;;;;8.59;64.76;95375.28;5117590;28;20192;-69
2022/09/24 07:00:40;;;;;;;8.98;8.07;;;;;;;8.63;65.18;95372.69;5117694;28;20206;-69
2022/09/24 07:03:07;;;;;;;7.83;6.93;;;;;;;8.69;64.85;95371.34;5117233;28;20195;-69
2022/09/24 07:05:34;;;;;;;8.77;7.97;;;;;;;8.74;64.56;95384.09;5116542;28;20557;-69
2022/09/24 07:08:03;;;;;;;8.30;7.40;;;;;;;8.79;64.22;95383.94;5116330;28;20196;-69
2022/09/24 07:10:30;;;;;;;8.90;7.63;;;;;;;8.84;64.26;95383.72;5117284;28;20211;-69
2022/09/24 07:12:56;;;;;;;10.25;7.93;;;;;;;8.88;64.00;95382.72;5116233;28;20214;-69
2022/09/24 07:15:23;;;;;;;8.38;7.68;;;;;;;8.92;63.74;95389.16;5116697;28;20207;-68
2022/09/24 07:17:55;;;;;;;8.73;7.90;;;;;;;9.01;64.20;95380.06;5117020;28;20207;-68
2022/09/24 07:20:21;;;;;;;8.55;7.68;;;;;;;9.08;64.11;95383.06;5117271;28;20195;-69
2022/09/24 07:22:51;;;;;;;9.90;8.90;;;;;;;9.17;64.09;95381.03;5117124;28;20195;-68
2022/09/24 07:25:19;;;;;;;9.10;8.23;;;;;;;9.28;63.84;95378.69;5117180;28;20183;-68
2022/09/24 07:27:46;;;;;;;8.80;8.05;;;;;;;9.37;63.35;95374.72;5117033;28;20211;-69
2022/09/24 07:30:13;;;;;;;12.48;9.50;;;;;;;9.47;63.21;95381.75;5116700;28;20231;-69
2022/09/24 07:32:40;;;;;;;10.47;9.40;;;;;;;9.56;62.79;95384.44;5116236;28;20615;-69
2022/09/24 07:35:08;;;;;;;10.13;9.13;;;;;;;9.64;63.10;95369.75;5116091;28;20199;-69
2022/09/24 07:37:34;;;;;;;11.70;9.65;;;;;;;9.73;62.73;95370.50;5115985;28;20286;-69
2022/09/24 07:40:02;;;;;;;10.68;9.40;;;;;;;9.83;62.78;95380.25;5115966;28;20191;-69
2022/09/24 07:42:30;;;;;;;11.38;10.15;;;;;;;9.92;62.60;95371.91;5115787;28;20210;-69
2022/09/24 07:44:57;;;;;;;12.00;10.55;;;;;;;10.04;62.20;95374.69;5115770;28;20195;-69
2022/09/24 07:47:24;;;;;;;10.93;9.93;;;;;;;10.17;61.21;95364.47;5116103;28;20207;-69
2022/09/24 07:49:51;;;;;;;12.00;10.25;;;;;;;10.22;61.44;95364.25;5115719;28;20204;-69
2022/09/24 07:52:18;;;;;;;11.70;10.48;;;;;;;10.30;61.42;95368.88;5115770;28;20245;-69
2022/09/24 07:54:44;;;;;;;11.80;10.65;;;;;;;10.42;60.89;95362.56;5116574;28;20180;-69
2022/09/24 07:57:12;;;;;;;11.27;10.18;;;;;;;10.53;60.09;95360.94;5115290;28;20260;-69
2022/09/24 07:59:43;;;;;;;11.88;10.77;;;;;;;10.59;60.13;95354.84;5116196;28;20245;-69
2022/09/24 08:02:15;;;;;;;10.60;9.57;;;;;;;10.66;59.08;95359.78;5116475;28;20252;-69
2022/09/24 08:04:41;;;;;;;11.93;10.70;;;;;;;10.78;60.38;95356.22;5115518;28;20187;-69
2022/09/24 08:07:08;;;;;;;12.63;11.05;;;;;;;10.93;60.05;95358.28;5115387;28;20253;-69
2022/09/24 08:09:35;;;;;;;12.25;11.02;;;;;;;11.03;59.58;95360.53;5115008;28;20227;-70
2022/09/24 08:12:02;;;;;;;12.23;10.93;;;;;;;11.21;58.79;95360.25;5115970;28;20649;-69
2022/09/24 08:14:29;;;;;;;11.80;10.60;;;;;;;11.31;58.79;95362.53;5115395;28;20203;-70
2022/09/24 08:16:57;;;;;;;12.65;11.20;;;;;;;11.45;57.31;95354.66;5114981;28;20192;-69
2022/09/24 08:19:24;;;;;;;12.17;11.07;;;;;;;11.53;57.51;95356.47;5115489;28;20196;-69
2022/09/24 08:21:52;;;;;;;10.73;9.73;;;;;;;11.76;56.13;95359.47;5115315;28;20649;-69
2022/09/24 08:24:19;;;;;;;12.65;11.25;;;;;;;11.83;56.81;95356.09;5115860;28;20195;-70
2022/09/24 08:26:46;;;;;;;14.07;12.57;;;;;;;11.93;56.26;95347.31;5116054;28;20249;-69
2022/09/24 08:29:13;;;;;;;13.47;11.27;;;;;;;12.00;55.50;95343.94;5115002;28;20260;-70
2022/09/24 08:31:41;;;;;;;11.73;10.13;;;;;;;12.04;56.21;95345.63;5116185;28;20187;-70
2022/09/24 08:34:09;;;;;;;11.95;10.85;;;;;;;12.14;55.92;95336.00;5115890;28;20649;-70
2022/09/24 08:36:37;;;;;;;12.77;11.38;;;;;;;12.27;55.20;95337.53;5115584;28;20179;-70
2022/09/24 08:39:05;;;;;;;11.77;10.63;;;;;;;12.42;54.87;95349.75;5115850;28;20240;-70
2022/09/24 08:41:47;;;;;;;12.43;10.57;;;;;;;12.61;53.82;95343.47;5114938;28;20253;-70
2022/09/24 08:47:21;;;;;;;12.43;10.43;;;;;;;12.76;53.16;95337.09;5114982;28;20191;-71
2022/09/24 08:47:23;;;;;;;11.10;10.10;;;;;;;12.89;53.98;95335.03;5114400;28;20282;-70
2022/09/24 08:50:03;;;;;;;11.07;10.07;;;;;;;13.07;54.11;95334.59;5115717;28;20203;-70
2022/09/24 08:52:38;;;;;;;9.95;9.05;;;;;;;13.18;52.53;95322.63;5115725;28;20192;-70
2022/09/24 08:55:08;;;;;;;10.53;9.50;;;;;;;13.30;51.98;95320.91;5114146;28;20199;-70
2022/09/24 08:57:40;;;;;;;10.80;9.65;;;;;;;13.44;52.32;95322.00;5115782;28;20187;-70
2022/09/24 09:00:13;;;;;;;9.67;8.87;;;;;;;13.68;51.92;95325.59;5114551;28;20268;-70
2022/09/24 09:02:44;;;;;;;10.93;9.82;;;;;;;13.87;51.37;95320.06;5114854;28;20282;-70
2022/09/24 09:05:18;;;;;;;10.23;9.23;;;;;;;13.99;51.65;95318.28;5114761;28;20214;-70
2022/09/24 09:07:48;;;;;;;12.05;8.77;;;;;;;14.10;51.46;95314.50;5114460;28;20548;-69
2022/09/24 09:10:25;;;;;;;11.20;8.98;;;;;;;14.24;50.07;95321.47;5115423;28;20222;-70
2022/09/24 09:12:54;;;;;;;9.27;8.10;;;;;;;14.39;49.87;95315.78;5114181;28;20533;-70
2022/09/24 09:15:25;;;;;;;9.50;8.52;;;;;;;14.47;48.81;95316.72;5114512;28;20191;-70
2022/09/24 09:17:55;;;;;;;9.30;8.40;;;;;;;14.46;49.13;95309.56;5114734;28;20188;-70
2022/09/24 09:20:25;;;;;;;9.60;8.40;;;;;;;14.50;48.37;95316.00;5115150;28;20190;-70
2022/09/24 09:22:53;;;;;;;8.38;7.45;;;;;;;14.66;48.61;95302.75;5115327;28;20207;-70
2022/09/24 09:25:24;;;;;;;9.48;7.18;;;;;;;14.78;48.33;95304.53;5114186;28;20286;-70
2022/09/24 09:27:59;;;;;;;7.30;6.53;;;;;;;14.76;48.71;95301.31;5115312;28;20260;-70
2022/09/24 09:30:26;;;;;;;7.70;7.00;;;;;;;14.99;47.52;95295.69;5115667;28;20296;-70
2022/09/24 09:33:13;;;;;;;8.50;7.70;;;;;;;15.10;47.02;95291.06;5114615;28;20195;-70
2022/09/24 09:35:46;;;;;;;9.32;8.25;;;;;;;15.10;47.25;95287.50;5115512;28;20188;-70
2022/09/24 09:38:22;;;;;;;10.05;7.82;;;;;;;15.11;47.76;95284.38;5115121;28;20196;-70
2022/09/24 09:40:53;;;;;;;7.85;7.15;;;;;;;15.18;47.50;95278.09;5114989;28;20191;-70
2022/09/24 09:43:20;;;;;;;7.97;7.18;;;;;;;15.25;46.91;95275.41;5115029;28;20549;-69
2022/09/24 09:45:56;;;;;;;7.63;6.93;;;;;;;15.24;46.64;95278.56;5114657;28;20195;-69
2022/09/24 09:48:28;;;;;;;5.78;5.20;;;;;;;15.17;44.59;95268.94;5114300;28;20195;-69
2022/09/24 09:51:02;;;;;;;5.40;4.90;;;;;;;15.30;44.46;95269.50;5113970;28;20223;-69
2022/09/24 09:53:30;;;;;;;4.88;4.40;;;;;;;15.37;43.85;95257.69;5115512;28;20175;-69
2022/09/24 09:55:59;;;;;;;6.65;5.38;;;;;;;15.48;45.44;95250.28;5115350;28;20274;-70
2022/09/24 09:58:28;;;;;;;5.28;4.85;;;;;;;15.66;43.06;95247.72;5114582;28;20223;-71
2022/09/24 10:01:04;;;;;;;5.57;4.80;;;;;;;15.81;41.26;95252.22;5114091;28;20192;-70
2022/09/24 10:03:32;;;;;;;5.97;4.57;;;;;;;15.81;41.80;95243.88;5114894;28;20192;-70
2022/09/24 10:06:02;;;;;;;4.90;4.35;;;;;;;15.86;43.08;95235.19;5114196;28;20205;-70
2022/09/24 10:08:29;;;;;;;4.30;3.90;;;;;;;16.01;40.69;95252.00;5117800;28;20199;-70
2022/09/24 10:10:57;;;;;;;3.08;2.88;;;;;;;16.04;36.98;95232.56;5118439;28;20208;-69
2022/09/24 10:13:24;;;;;;;3.35;3.05;;;;;;;16.08;37.00;95233.41;5117978;28;20198;-69
2022/09/24 10:15:52;;;;;;;3.38;2.67;;;;;;;16.17;37.38;95235.88;5118298;28;20196;-69
2022/09/24 10:18:28;;;;;;;3.55;3.25;;;;;;;16.26;37.53;95225.19;5118771;28;20244;-70
2022/09/24 10:20:55;;;;;;;3.03;2.45;;;;;;;16.40;36.83;95218.16;5117524;28;20206;-69
2022/09/24 10:23:35;;;;;;;3.50;3.13;;;;;;;16.48;35.00;95248.41;5117575;28;20196;-69
2022/09/24 10:26:03;;;;;;;3.08;2.88;;;;;;;16.48;35.78;95231.72;5117279;28;20642;-70
2022/09/24 10:31:17;;;;;;;3.22;2.53;;;;;;;16.68;36.22;95226.69;5117410;28;20239;-70
2022/09/24 10:33:46;;;;;;;2.75;2.55;;;;;;;16.74;34.90;95229.94;5117970;28;20246;-70
2022/09/24 10:36:16;;;;;;;2.80;2.60;;;;;;;16.77;35.76;95221.59;5117455;28;20529;-70
2022/09/24 10:38:44;;;;;;;3.17;2.92;;;;;;;16.87;35.32;95224.84;5118047;28;20180;-70
2022/09/24 10:41:16;;;;;;;2.70;2.50;;;;;;;16.96;35.05;95223.31;5118274;28;20216;-70
2022/09/24 10:43:51;;;;;;;3.40;3.10;;;;;;;17.05;34.39;95222.94;5117209;28;20195;-70
2022/09/24 10:46:44;;;;;;;2.75;2.53;;;;;;;17.08;32.93;95222.16;5117592;28;20539;-71
2022/09/24 10:49:22;;;;;;;2.63;2.42;;;;;;;17.15;33.88;95226.97;5117888;28;20344;-70
2022/09/24 10:51:56;;;;;;;3.85;2.63;;;;;;;17.16;34.57;95223.78;5117877;27;20296;-71
2022/09/24 10:54:37;;;;;;;2.97;2.78;;;;;;;17.19;33.26;95233.34;5117116;28;20226;-71
2022/09/24 10:57:12;;;;;;;3.00;2.80;;;;;;;17.16;33.54;95226.56;5116502;28;20627;-71
2022/09/24 10:59:50;;;;;;;2.65;2.45;;;;;;;17.21;33.27;95223.44;5117028;28;20191;-70
2022/09/24 11:03:07;;;;;;;2.80;2.60;;;;;;;17.21;33.97;95217.03;5117706;28;20218;-70
2022/09/24 11:05:37;;;;;;;3.17;2.88;;;;;;;17.32;33.93;95212.31;5018657;28;20217;-70
2022/09/24 11:08:13;;;;;;;3.30;2.97;;;;;;;17.42;33.41;95222.69;5035147;28;20210;-70
2022/09/24 11:11:10;;;;;;;3.58;2.90;;;;;;;17.45;33.12;95219.13;5088671;28;20227;-70
2022/09/24 11:13:43;;;;;;;4.18;2.83;;;;;;;17.44;33.47;95211.16;5114634;28;20212;-70
2022/09/24 11:16:24;;;;;;;3.03;2.83;;;;;;;17.48;33.41;95203.59;5117154;28;20186;-70
2022/09/24 11:18:56;;;;;;;2.17;2.08;;;;;;;17.52;33.27;95202.41;5116984;28;20286;-70
2022/09/24 11:21:31;;;;;;;2.80;2.60;;;;;;;17.57;33.64;95204.00;5116501;28;20224;-70
2022/09/24 11:24:11;;;;;;;3.05;2.72;;;;;;;17.63;34.08;95191.28;5116497;28;20198;-70
2022/09/24 11:26:48;;;;;;;2.88;2.67;;;;;;;17.74;33.13;95188.50;5116333;28;20187;-70
2022/09/24 11:29:30;;;;;;;3.03;2.83;;;;;;;17.71;32.66;95180.91;5115847;28;20206;-69
2022/09/24 11:32:04;;;;;;;4.28;3.72;;;;;;;17.73;34.20;95184.13;5117101;28;20646;-69
2022/09/24 11:34:49;;;;;;;2.88;2.67;;;;;;;17.83;33.77;95176.97;5117097;28;20210;-69
2022/09/24 11:37:38;;;;;;;3.15;2.83;;;;;;;17.83;32.44;95169.44;5116457;28;20268;-69
2022/09/24 11:40:16;;;;;;;3.35;3.05;;;;;;;17.88;32.86;95180.19;5116972;28;20191;-69
2022/09/24 11:42:52;;;;;;;6.15;3.53;;;;;;;17.87;35.04;95166.66;5116090;28;20195;-69
2022/09/24 11:45:36;;;;;;;2.85;2.65;;;;;;;17.92;33.49;95169.81;5116050;28;20218;-70
2022/09/24 11:48:24;;;;;;;3.00;2.80;;;;;;;17.96;32.03;95173.41;5116804;28;20195;-70
2022/09/24 11:51:01;;;;;;;3.40;3.10;;;;;;;17.98;33.16;95173.03;5116707;28;20211;-69
2022/09/24 11:53:34;;;;;;;3.50;3.20;;;;;;;18.01;33.96;95166.63;5098731;28;20639;-69
2022/09/24 11:56:06;;;;;;;2.45;2.30;;;;;;;18.04;33.85;95157.44;5115693;28;20200;-69